createdAt,value
2023-04-19T00:03:44.873Z,18.80
2023-04-19T00:08:48.224Z,18.70
2023-04-19T00:13:51.446Z,18.70
2023-04-19T00:18:56.049Z,18.70
2023-04-19T00:23:59.285Z,18.70
2023-04-19T00:29:02.555Z,18.70
2023-04-19T00:34:07.526Z,18.70
2023-04-19T00:39:10.765Z,18.60
2023-04-19T00:44:15.209Z,18.60
2023-04-19T00:49:21.333Z,18.60
2023-04-19T00:54:26.740Z,18.60
2023-04-19T00:59:30.313Z,18.60
2023-04-19T01:04:35.152Z,18.50
2023-04-19T01:09:42.379Z,18.50
2023-04-19T01:14:45.729Z,18.50
2023-04-19T01:19:50.266Z,18.40
2023-04-19T01:24:54.879Z,18.40
2023-04-19T01:29:58.323Z,18.40
2023-04-19T01:35:03.274Z,18.30
2023-04-19T01:40:09.366Z,18.30
2023-04-19T01:45:14.290Z,18.30
2023-04-19T01:50:17.562Z,18.30
2023-04-19T01:55:22.468Z,18.20
2023-04-19T02:00:26.089Z,18.20
2023-04-19T02:05:29.505Z,18.20
2023-04-19T02:10:34.962Z,18.10
2023-04-19T02:15:39.307Z,18.10
2023-04-19T02:20:42.754Z,18.00
2023-04-19T02:25:48.088Z,18.00
2023-04-19T02:30:51.604Z,17.90
2023-04-19T02:35:54.856Z,17.80
2023-04-19T02:41:00.825Z,17.80
2023-04-19T02:46:04.642Z,17.80
2023-04-19T02:51:08.010Z,17.80
2023-04-19T02:56:17.091Z,17.80
2023-04-19T03:01:21.035Z,17.80
2023-04-19T03:06:24.390Z,17.70
2023-04-19T03:11:29.051Z,17.70
2023-04-19T03:16:32.299Z,17.70
2023-04-19T03:21:35.683Z,17.70
2023-04-19T03:26:40.395Z,17.80
2023-04-19T03:31:44.030Z,17.80
2023-04-19T03:36:49.294Z,17.80
2023-04-19T03:41:54.165Z,17.80
2023-04-19T03:47:01.881Z,17.80
2023-04-19T03:52:10.125Z,17.90
2023-04-19T03:57:17.774Z,17.90
2023-04-19T04:02:21.271Z,17.90
2023-04-19T04:07:25.873Z,17.90
2023-04-19T04:12:31.860Z,17.90
2023-04-19T04:17:36.876Z,18.00
2023-04-19T04:22:43.993Z,18.00
2023-04-19T04:27:52.073Z,18.00
2023-04-19T04:32:59.122Z,18.00
2023-04-19T04:38:11.065Z,18.00
2023-04-19T04:43:19.050Z,18.00
2023-04-19T04:48:22.545Z,18.00
2023-04-19T04:53:27.645Z,18.00
2023-04-19T04:58:32.580Z,18.00
2023-04-19T05:03:41.631Z,18.00
2023-04-19T05:08:49.801Z,18.00
2023-04-19T05:14:14.037Z,18.00
2023-04-19T05:19:17.457Z,17.90
2023-04-19T05:24:27.604Z,17.90
2023-04-19T05:29:33.272Z,17.90
2023-04-19T05:34:37.920Z,17.90
2023-04-19T05:39:44.037Z,17.90
2023-04-19T05:44:49.150Z,17.90
2023-04-19T05:49:52.623Z,17.80
2023-04-19T05:55:07.118Z,17.80
2023-04-19T06:00:14.000Z,17.80
2023-04-19T06:05:19.251Z,17.80
2023-04-19T06:10:22.811Z,17.80
2023-04-19T06:15:27.450Z,17.80
2023-04-19T06:20:30.781Z,17.80
2023-04-19T06:25:34.538Z,17.90
2023-04-19T06:30:39.154Z,17.80
2023-04-19T06:35:42.312Z,17.80
2023-04-19T06:40:45.553Z,17.80
2023-04-19T06:45:50.192Z,17.80
2023-04-19T06:50:53.562Z,17.80
2023-04-19T06:55:59.342Z,17.70
2023-04-19T07:01:04.945Z,17.70
2023-04-19T07:06:08.661Z,17.60
2023-04-19T07:11:11.960Z,17.60
2023-04-19T07:16:16.725Z,17.60
2023-04-19T07:21:20.314Z,17.60
2023-04-19T07:26:23.509Z,17.60
2023-04-19T07:31:28.826Z,17.60
2023-04-19T07:36:32.099Z,17.60
2023-04-19T07:41:36.217Z,17.60
2023-04-19T07:46:44.788Z,17.60
2023-04-19T07:51:48.038Z,17.60
2023-04-19T07:56:51.364Z,17.60
2023-04-19T08:01:56.844Z,17.60
2023-04-19T08:07:00.147Z,17.60
2023-04-19T08:12:03.499Z,17.70
2023-04-19T08:17:23.289Z,17.70
2023-04-19T08:22:28.272Z,17.70
2023-04-19T08:27:31.546Z,17.80
2023-04-19T08:32:36.412Z,17.80
2023-04-19T08:37:39.686Z,17.80
2023-04-19T08:42:43.004Z,17.90
2023-04-19T08:47:58.764Z,17.90
2023-04-19T08:53:21.021Z,17.90
2023-04-19T08:58:45.818Z,18.00
2023-04-19T09:04:01.140Z,18.00
2023-04-19T09:09:33.450Z,18.10
2023-04-19T09:14:59.969Z,18.10
2023-04-19T09:20:08.523Z,18.00
2023-04-19T09:25:41.855Z,18.00
2023-04-19T09:31:02.340Z,18.00
2023-04-19T09:36:14.618Z,18.10
2023-04-19T09:41:18.496Z,18.10
2023-04-19T09:46:35.646Z,18.10
2023-04-19T09:51:43.701Z,18.10
2023-04-19T09:56:47.068Z,18.20
2023-04-19T10:01:57.308Z,18.20
2023-04-19T10:12:30.591Z,18.30
2023-04-19T10:17:32.552Z,18.40
2023-04-19T10:22:38.879Z,18.40
2023-04-19T10:27:48.933Z,18.50
2023-04-19T10:32:56.356Z,18.50
2023-04-19T10:38:09.561Z,18.50
2023-04-19T10:43:19.786Z,18.60
2023-04-19T10:48:56.089Z,18.70
2023-04-19T10:54:02.229Z,18.70
2023-04-19T10:59:22.190Z,18.70
2023-04-19T11:04:41.477Z,18.70
2023-04-19T11:09:48.897Z,18.70
2023-04-19T11:14:54.093Z,18.80
2023-04-19T11:19:58.834Z,18.80
2023-04-19T11:25:13.956Z,18.80
2023-04-19T11:30:20.195Z,18.70
2023-04-19T11:35:24.798Z,18.70
2023-04-19T11:40:29.764Z,18.70
2023-04-19T11:45:38.648Z,18.80
2023-04-19T11:50:44.346Z,18.80
2023-04-19T11:55:52.315Z,18.80
2023-04-19T12:00:55.818Z,18.80
2023-04-19T12:06:03.251Z,18.80
2023-04-19T12:11:08.392Z,18.90
2023-04-19T12:16:12.567Z,18.90
2023-04-19T12:21:27.472Z,19.00
2023-04-19T12:26:32.453Z,19.00
2023-04-19T12:31:36.438Z,19.10
2023-04-19T12:36:39.761Z,19.10
2023-04-19T12:41:44.694Z,19.10
2023-04-19T12:46:47.948Z,19.10
2023-04-19T12:51:51.365Z,19.10
2023-04-19T12:56:56.213Z,19.10
2023-04-19T13:01:59.890Z,19.10
2023-04-19T13:07:03.316Z,19.10
2023-04-19T13:12:08.744Z,19.10
2023-04-19T13:17:12.047Z,19.10
2023-04-19T13:22:15.552Z,19.10
2023-04-19T13:27:20.890Z,19.10
2023-04-19T13:32:24.254Z,19.10
2023-04-19T13:37:27.607Z,19.00
2023-04-19T13:42:32.321Z,19.00
2023-04-19T13:47:35.697Z,19.00
2023-04-19T13:52:39.138Z,19.00
2023-04-19T13:57:43.985Z,19.00
2023-04-19T14:02:48.396Z,19.00
2023-04-19T14:07:53.562Z,19.00
2023-04-19T14:12:58.606Z,19.10
2023-04-19T14:18:04.281Z,19.10
2023-04-19T14:23:07.605Z,19.10
2023-04-19T14:28:13.033Z,19.00
2023-04-19T14:33:16.286Z,19.10
2023-04-19T14:38:19.576Z,19.10
2023-04-19T14:43:24.181Z,19.10
2023-04-19T14:48:27.349Z,19.10
2023-04-19T14:53:32.362Z,19.10
2023-04-19T14:58:38.545Z,19.10
2023-04-19T15:03:42.321Z,19.20
2023-04-19T15:08:47.016Z,19.10
2023-04-19T15:13:51.697Z,19.10
2023-04-19T15:18:55.010Z,19.20
2023-04-19T15:23:58.709Z,19.20
2023-04-19T15:29:03.314Z,19.20
2023-04-19T15:34:06.641Z,19.10
2023-04-19T15:39:10.035Z,19.20
2023-04-19T15:44:14.706Z,19.20
2023-04-19T15:49:18.470Z,19.10
2023-04-19T15:54:23.156Z,19.10
2023-04-19T15:59:27.720Z,19.10
2023-04-19T16:04:32.211Z,19.00
2023-04-19T16:09:35.545Z,19.00
2023-04-19T16:14:40.188Z,19.00
2023-04-19T16:19:43.452Z,19.00
2023-04-19T16:24:46.971Z,19.10
2023-04-19T16:29:51.750Z,19.10
2023-04-19T16:34:55.040Z,19.10
2023-04-19T16:39:58.288Z,19.00
2023-04-19T16:45:03.288Z,19.10
2023-04-19T16:50:07.660Z,19.10
2023-04-19T16:55:11.827Z,19.00
2023-04-19T17:00:18.077Z,19.00
2023-04-19T17:05:21.470Z,19.00
2023-04-19T17:10:25.531Z,19.00
2023-04-19T17:15:30.529Z,18.90
2023-04-19T17:20:34.093Z,18.80
2023-04-19T17:25:37.577Z,18.80
2023-04-19T17:30:42.840Z,18.70
2023-04-19T17:35:46.380Z,18.70
2023-04-19T17:40:50.622Z,18.70
2023-04-19T17:45:55.705Z,18.60
2023-04-19T17:50:59.113Z,18.50
2023-04-19T17:56:03.465Z,18.50
2023-04-19T18:01:13.953Z,18.40
2023-04-19T18:06:19.090Z,18.40
2023-04-19T18:11:26.923Z,18.30
2023-04-19T18:16:35.777Z,18.30
2023-04-19T18:21:40.260Z,18.30
2023-04-19T18:26:46.130Z,18.30
2023-04-19T18:31:56.318Z,18.30
2023-04-19T18:37:03.156Z,18.20
2023-04-19T18:42:08.064Z,18.20
2023-04-19T18:47:14.779Z,18.20
2023-04-19T18:52:20.575Z,18.20
2023-04-19T18:57:27.401Z,18.10
2023-04-19T19:02:35.252Z,18.10
2023-04-19T19:07:40.578Z,18.00
2023-04-19T19:12:46.193Z,18.00
2023-04-19T19:17:52.245Z,18.00
2023-04-19T19:22:58.158Z,17.90
2023-04-19T19:28:09.054Z,17.80
2023-04-19T19:33:17.047Z,17.70
2023-04-19T19:38:21.797Z,17.70
2023-04-19T19:43:26.200Z,17.70
2023-04-19T19:48:40.835Z,17.60
2023-04-19T19:53:48.166Z,17.60
2023-04-19T19:58:53.809Z,17.60
2023-04-19T20:04:01.722Z,17.50
2023-04-19T20:09:05.937Z,17.50
2023-04-19T20:14:11.098Z,17.50
2023-04-19T20:19:17.495Z,17.50
2023-04-19T20:24:22.230Z,17.50
2023-04-19T20:29:27.771Z,17.50
2023-04-19T20:34:34.646Z,17.40
2023-04-19T20:39:39.770Z,17.40
2023-04-19T20:44:44.161Z,17.40
2023-04-19T20:49:51.511Z,17.40
2023-04-19T20:54:56.700Z,17.30
2023-04-19T21:00:00.893Z,17.20
2023-04-19T21:05:06.232Z,17.00
2023-04-19T21:10:11.430Z,17.00
2023-04-19T21:15:15.951Z,16.90
2023-04-19T21:20:22.205Z,16.80
2023-04-19T21:25:25.471Z,16.70
2023-04-19T21:30:28.775Z,16.60
2023-04-19T21:35:33.413Z,16.60
2023-04-19T21:40:36.886Z,16.60
2023-04-19T21:45:40.212Z,16.60
2023-04-19T21:50:44.841Z,16.60
2023-04-19T21:55:50.070Z,16.50
2023-04-19T22:00:54.606Z,16.50
2023-04-19T22:06:02.220Z,16.60
2023-04-19T22:11:06.028Z,16.60
2023-04-19T22:16:09.481Z,16.60
2023-04-19T22:21:14.905Z,16.60
2023-04-19T22:26:18.210Z,16.60
2023-04-19T22:31:21.427Z,16.60
2023-04-19T22:36:26.334Z,16.60
2023-04-19T22:41:29.542Z,16.50
2023-04-19T22:46:33.395Z,16.50
2023-04-19T22:51:38.431Z,16.50
2023-04-19T22:56:41.689Z,16.50
2023-04-19T23:01:45.055Z,16.60
2023-04-19T23:06:49.707Z,16.60
2023-04-19T23:11:54.880Z,16.60
2023-04-19T23:16:59.166Z,16.60
2023-04-19T23:22:03.776Z,16.60
2023-04-19T23:27:07.063Z,16.60
2023-04-19T23:32:10.240Z,16.60
2023-04-19T23:37:14.977Z,16.60
2023-04-19T23:42:18.281Z,16.60
2023-04-19T23:47:21.740Z,16.70
2023-04-19T23:52:27.564Z,16.60
2023-04-19T23:57:30.938Z,16.70
